AAL3704 KEGE-KDFW
Flight info
| Callsign | AAL3704 |
|---|---|
| Flight time | N/A |
| Altitude | 37000 |
| Route | APRES2 APRES COORZ EZEEE MDANO JOVEM6 |
| Aircraft | A320/M-SDE3FGHIRWY/LB1 |
Departure
| Time | 2026-04-29 19:11 |
|---|---|
| Airport | Eagle County Regional Airport (KEGE) |
Arrival
| Time | N/A |
|---|---|
| Airport | Dallas Fort Worth International Airport (KDFW) |
| Time | Latitude | Longitude | Altitude | Speed | Heading |
|---|---|---|---|---|---|
| 2026-04-29 19:10 | 39.61183 | -106.96884 | 8099 ft | 198 kts | 220° |
| 2026-04-29 19:11 | 39.60045 | -106.98015 | 8363 ft | 213 kts | 220° |
| 2026-04-29 19:11 | 39.58863 | -106.99292 | 8643 ft | 229 kts | 228° |
| 2026-04-29 19:11 | 39.57924 | -107.01022 | 8921 ft | 243 kts | 248° |
| 2026-04-29 19:11 | 39.57506 | -107.03190 | 9456 ft | 252 kts | 268° |
| 2026-04-29 19:12 | 39.57684 | -107.05444 | 10244 ft | 253 kts | 285° |
| 2026-04-29 19:12 | 39.58379 | -107.07543 | 10979 ft | 255 kts | 301° |
| 2026-04-29 19:12 | 39.59531 | -107.09301 | 11687 ft | 259 kts | 317° |
| 2026-04-29 19:12 | 39.60512 | -107.10194 | 12148 ft | 262 kts | 329° |
| 2026-04-29 19:13 | 39.62845 | -107.11124 | 13056 ft | 272 kts | 353° |
| 2026-04-29 19:13 | 39.64753 | -107.10943 | 13700 ft | 280 kts | 9° |
| 2026-04-29 19:13 | 39.66668 | -107.10394 | 14295 ft | 284 kts | 9° |
| 2026-04-29 19:13 | 39.68606 | -107.09846 | 14871 ft | 287 kts | 9° |
| 2026-04-29 19:14 | 39.70515 | -107.09044 | 15473 ft | 292 kts | 26° |
| 2026-04-29 19:14 | 39.72141 | -107.07440 | 16060 ft | 298 kts | 47° |
| 2026-04-29 19:14 | 39.73279 | -107.05140 | 16434 ft | 312 kts | 69° |
| 2026-04-29 19:14 | 39.73758 | -107.02342 | 16723 ft | 325 kts | 83° |
| 2026-04-29 19:15 | 39.74039 | -106.99351 | 16962 ft | 341 kts | 83° |
| 2026-04-29 19:15 | 39.74335 | -106.96262 | 17164 ft | 358 kts | 83° |
| 2026-04-29 19:15 | 39.74658 | -106.92983 | 17365 ft | 374 kts | 83° |
| 2026-04-29 19:15 | 39.74998 | -106.89566 | 17582 ft | 388 kts | 83° |
| 2026-04-29 19:16 | 39.75347 | -106.86063 | 18037 ft | 394 kts | 83° |
| 2026-04-29 19:16 | 39.75703 | -106.82517 | 18581 ft | 397 kts | 82° |
| 2026-04-29 19:16 | 39.76060 | -106.78943 | 19084 ft | 400 kts | 82° |
| 2026-04-29 19:16 | 39.76415 | -106.75342 | 19584 ft | 403 kts | 83° |
| 2026-04-29 19:17 | 39.76769 | -106.71713 | 20092 ft | 406 kts | 83° |
| 2026-04-29 19:17 | 39.77118 | -106.68108 | 20576 ft | 409 kts | 83° |
| 2026-04-29 19:17 | 39.77472 | -106.64430 | 21089 ft | 412 kts | 83° |
| 2026-04-29 19:17 | 39.77827 | -106.60725 | 21587 ft | 415 kts | 83° |
| 2026-04-29 19:18 | 39.78183 | -106.56997 | 22079 ft | 417 kts | 83° |
| 2026-04-29 19:18 | 39.78421 | -106.54507 | 22389 ft | 420 kts | 83° |
| 2026-04-29 19:18 | 39.78908 | -106.49446 | 23108 ft | 424 kts | 83° |
| 2026-04-29 19:18 | 39.79274 | -106.45627 | 23611 ft | 427 kts | 83° |
| 2026-04-29 19:19 | 39.79641 | -106.41786 | 23982 ft | 430 kts | 83° |
| 2026-04-29 19:19 | 39.80007 | -106.37921 | 24344 ft | 432 kts | 83° |
| 2026-04-29 19:19 | 39.80370 | -106.34081 | 24679 ft | 435 kts | 83° |
| 2026-04-29 19:19 | 39.80740 | -106.30166 | 25006 ft | 438 kts | 82° |
| 2026-04-29 19:20 | 39.81110 | -106.26224 | 25328 ft | 440 kts | 82° |
| 2026-04-29 19:20 | 39.81482 | -106.22257 | 25653 ft | 443 kts | 82° |
| 2026-04-29 19:20 | 39.81852 | -106.18269 | 25998 ft | 446 kts | 82° |
| 2026-04-29 19:20 | 39.82223 | -106.14256 | 26345 ft | 448 kts | 82° |
| 2026-04-29 19:21 | 39.82594 | -106.10213 | 26675 ft | 451 kts | 82° |
| 2026-04-29 19:21 | 39.82963 | -106.06203 | 26987 ft | 454 kts | 82° |
| 2026-04-29 19:21 | 39.83338 | -106.02116 | 27314 ft | 457 kts | 82° |
| 2026-04-29 19:21 | 39.83543 | -105.99858 | 27486 ft | 458 kts | 82° |
| 2026-04-29 19:22 | 39.83915 | -105.95727 | 27780 ft | 461 kts | 82° |
| 2026-04-29 19:22 | 39.84287 | -105.91572 | 28056 ft | 464 kts | 82° |
| 2026-04-29 19:22 | 39.84662 | -105.87394 | 28348 ft | 466 kts | 82° |
| 2026-04-29 19:22 | 39.85030 | -105.83192 | 28622 ft | 469 kts | 84° |
| 2026-04-29 19:23 | 39.85029 | -105.78935 | 28888 ft | 472 kts | 96° |
| 2026-04-29 19:23 | 39.84426 | -105.74789 | 29103 ft | 474 kts | 107° |
| 2026-04-29 19:23 | 39.83223 | -105.70790 | 29328 ft | 476 kts | 118° |
| 2026-04-29 19:23 | 39.81478 | -105.67140 | 29527 ft | 476 kts | 130° |
| 2026-04-29 19:24 | 39.79244 | -105.63978 | 29730 ft | 475 kts | 141° |
| 2026-04-29 19:24 | 39.76756 | -105.61130 | 29922 ft | 477 kts | 141° |
| 2026-04-29 19:24 | 39.74262 | -105.58275 | 30126 ft | 480 kts | 142° |
| 2026-04-29 19:24 | 39.71754 | -105.55398 | 30297 ft | 482 kts | 142° |
| 2026-04-29 19:25 | 39.69237 | -105.52505 | 30479 ft | 484 kts | 142° |
| 2026-04-29 19:25 | 39.66747 | -105.49641 | 30644 ft | 486 kts | 142° |
| 2026-04-29 19:25 | 39.64214 | -105.46731 | 30811 ft | 488 kts | 142° |
| 2026-04-29 19:25 | 39.61668 | -105.43810 | 30990 ft | 489 kts | 143° |
| 2026-04-29 19:26 | 39.59117 | -105.40890 | 31220 ft | 489 kts | 143° |
| 2026-04-29 19:26 | 39.56568 | -105.37978 | 31436 ft | 489 kts | 143° |
| 2026-04-29 19:26 | 39.54012 | -105.35067 | 31650 ft | 490 kts | 143° |
| 2026-04-29 19:26 | 39.52090 | -105.32877 | 31817 ft | 490 kts | 144° |
| 2026-04-29 19:27 | 39.51239 | -105.31908 | 31880 ft | 491 kts | 144° |
| 2026-04-29 19:27 | 39.48709 | -105.29029 | 32085 ft | 491 kts | 144° |
| 2026-04-29 19:27 | 39.46142 | -105.26111 | 32310 ft | 492 kts | 144° |
| 2026-04-29 19:27 | 39.43569 | -105.23188 | 32530 ft | 492 kts | 144° |
| 2026-04-29 19:28 | 39.40994 | -105.20272 | 32734 ft | 493 kts | 144° |
| 2026-04-29 19:28 | 39.38412 | -105.17350 | 32930 ft | 493 kts | 145° |
| 2026-04-29 19:28 | 39.35823 | -105.14426 | 33140 ft | 495 kts | 145° |
| 2026-04-29 19:28 | 39.33231 | -105.11500 | 33347 ft | 495 kts | 145° |
| 2026-04-29 19:29 | 39.30638 | -105.08571 | 33554 ft | 496 kts | 145° |
| 2026-04-29 19:29 | 39.28073 | -105.05672 | 33758 ft | 497 kts | 146° |
| 2026-04-29 19:29 | 39.25474 | -105.02736 | 33955 ft | 497 kts | 146° |
| 2026-04-29 19:29 | 39.22868 | -104.99797 | 34139 ft | 499 kts | 146° |
| 2026-04-29 19:30 | 39.20253 | -104.96852 | 34292 ft | 499 kts | 146° |
| 2026-04-29 19:30 | 39.17631 | -104.93907 | 34461 ft | 500 kts | 146° |
| 2026-04-29 19:30 | 39.15008 | -104.90966 | 34635 ft | 500 kts | 146° |
| 2026-04-29 19:30 | 39.12378 | -104.88022 | 34820 ft | 501 kts | 146° |
| 2026-04-29 19:31 | 39.09750 | -104.85081 | 35003 ft | 501 kts | 146° |
| 2026-04-29 19:31 | 39.07122 | -104.82136 | 35183 ft | 501 kts | 146° |
| 2026-04-29 19:31 | 39.04524 | -104.79228 | 35351 ft | 502 kts | 147° |
| 2026-04-29 19:31 | 39.01888 | -104.76287 | 35502 ft | 502 kts | 147° |
| 2026-04-29 19:32 | 38.99249 | -104.73345 | 35648 ft | 503 kts | 147° |
| 2026-04-29 19:32 | 38.96605 | -104.70399 | 35794 ft | 503 kts | 147° |
| 2026-04-29 19:32 | 38.93961 | -104.67459 | 35948 ft | 503 kts | 147° |
| 2026-04-29 19:32 | 38.91313 | -104.64516 | 36098 ft | 503 kts | 147° |
| 2026-04-29 19:33 | 38.88664 | -104.61572 | 36234 ft | 504 kts | 147° |
| 2026-04-29 19:33 | 38.86014 | -104.58629 | 36374 ft | 504 kts | 147° |
| 2026-04-29 19:33 | 38.83401 | -104.55727 | 36505 ft | 504 kts | 147° |
| 2026-04-29 19:34 | 38.78102 | -104.49853 | 36720 ft | 503 kts | 147° |
| 2026-04-29 19:34 | 38.75453 | -104.46924 | 36826 ft | 503 kts | 148° |
| 2026-04-29 19:34 | 38.72802 | -104.43995 | 36950 ft | 503 kts | 148° |
| 2026-04-29 19:34 | 38.70158 | -104.41072 | 37094 ft | 502 kts | 148° |
| 2026-04-29 19:35 | 38.67512 | -104.38151 | 37134 ft | 502 kts | 148° |
| 2026-04-29 19:35 | 38.62249 | -104.32374 | 37109 ft | 502 kts | 148° |
| 2026-04-29 19:36 | 38.56952 | -104.26566 | 37102 ft | 502 kts | 148° |
| 2026-04-29 19:36 | 38.51649 | -104.20749 | 37096 ft | 502 kts | 148° |
| 2026-04-29 19:37 | 38.46378 | -104.14974 | 37091 ft | 502 kts | 148° |
| 2026-04-29 19:37 | 38.41071 | -104.09173 | 37081 ft | 503 kts | 148° |
| 2026-04-29 19:38 | 38.35753 | -104.03380 | 37071 ft | 503 kts | 148° |
| 2026-04-29 19:38 | 38.30429 | -103.97598 | 37066 ft | 503 kts | 148° |
| 2026-04-29 19:39 | 38.25141 | -103.91862 | 37060 ft | 503 kts | 148° |
| 2026-04-29 19:39 | 38.19811 | -103.86085 | 37069 ft | 503 kts | 149° |
| 2026-04-29 19:40 | 38.14481 | -103.80318 | 37083 ft | 503 kts | 149° |
| 2026-04-29 19:40 | 38.09142 | -103.74567 | 37094 ft | 503 kts | 149° |
| 2026-04-29 19:41 | 38.03789 | -103.68817 | 37103 ft | 504 kts | 149° |
| 2026-04-29 19:41 | 37.98469 | -103.63094 | 37103 ft | 506 kts | 149° |
| 2026-04-29 19:42 | 37.93104 | -103.57323 | 37095 ft | 506 kts | 149° |
| 2026-04-29 19:42 | 37.87727 | -103.51563 | 37094 ft | 506 kts | 149° |
| 2026-04-29 19:43 | 37.82337 | -103.45821 | 37084 ft | 507 kts | 150° |
| 2026-04-29 19:43 | 37.76979 | -103.40114 | 37068 ft | 508 kts | 150° |
| 2026-04-29 19:44 | 37.71572 | -103.34356 | 37050 ft | 509 kts | 150° |
| 2026-04-29 19:44 | 37.66152 | -103.28594 | 37056 ft | 509 kts | 150° |
| 2026-04-29 19:45 | 37.60723 | -103.22844 | 37061 ft | 510 kts | 151° |
| 2026-04-29 19:45 | 37.55334 | -103.17150 | 37061 ft | 511 kts | 151° |
| 2026-04-29 19:46 | 37.49872 | -103.11389 | 37066 ft | 513 kts | 151° |
| 2026-04-29 19:46 | 37.44403 | -103.05634 | 37077 ft | 513 kts | 152° |
| 2026-04-29 19:47 | 37.38922 | -102.99864 | 37073 ft | 514 kts | 152° |
| 2026-04-29 19:47 | 37.33464 | -102.94136 | 37077 ft | 515 kts | 152° |
| 2026-04-29 19:48 | 37.27949 | -102.88368 | 37071 ft | 516 kts | 152° |
| 2026-04-29 19:48 | 37.22421 | -102.82594 | 37075 ft | 518 kts | 152° |
| 2026-04-29 19:49 | 37.16879 | -102.76806 | 37069 ft | 519 kts | 152° |
| 2026-04-29 19:49 | 37.11371 | -102.71054 | 37080 ft | 519 kts | 153° |
| 2026-04-29 19:50 | 37.05813 | -102.65275 | 37085 ft | 519 kts | 153° |
| 2026-04-29 19:50 | 37.00250 | -102.59504 | 37081 ft | 520 kts | 153° |
| 2026-04-29 19:51 | 36.94719 | -102.53785 | 37086 ft | 520 kts | 153° |
| 2026-04-29 19:51 | 36.89137 | -102.48018 | 37078 ft | 520 kts | 153° |
| 2026-04-29 19:52 | 36.83564 | -102.42262 | 37084 ft | 520 kts | 153° |
| 2026-04-29 19:52 | 36.77990 | -102.36528 | 37079 ft | 519 kts | 153° |
| 2026-04-29 19:53 | 36.72478 | -102.30884 | 37088 ft | 519 kts | 153° |
| 2026-04-29 19:53 | 36.66906 | -102.25181 | 37088 ft | 519 kts | 153° |
| 2026-04-29 19:54 | 36.58583 | -102.16663 | 37088 ft | 518 kts | 153° |
| 2026-04-29 19:54 | 36.53011 | -102.10980 | 37090 ft | 517 kts | 153° |
| 2026-04-29 19:55 | 36.47443 | -102.05315 | 37087 ft | 517 kts | 153° |
| 2026-04-29 19:55 | 36.41875 | -101.99659 | 37101 ft | 517 kts | 153° |
| 2026-04-29 19:56 | 36.36348 | -101.94053 | 37098 ft | 517 kts | 153° |
| 2026-04-29 19:56 | 36.30780 | -101.88417 | 37098 ft | 516 kts | 153° |
| 2026-04-29 19:57 | 36.26154 | -101.83743 | 37112 ft | 516 kts | 153° |
| 2026-04-29 19:57 | 36.19655 | -101.77177 | 37110 ft | 516 kts | 153° |
| 2026-04-29 19:58 | 36.14131 | -101.71621 | 37108 ft | 515 kts | 153° |
| 2026-04-29 19:58 | 36.08574 | -101.66044 | 37113 ft | 514 kts | 153° |
| 2026-04-29 19:59 | 36.03020 | -101.60476 | 37117 ft | 514 kts | 153° |
| 2026-04-29 19:59 | 35.97474 | -101.54919 | 37118 ft | 513 kts | 153° |
| 2026-04-29 20:00 | 35.91969 | -101.49423 | 37119 ft | 513 kts | 153° |
| 2026-04-29 20:00 | 35.86422 | -101.43894 | 37124 ft | 512 kts | 153° |
| 2026-04-29 20:01 | 35.80894 | -101.38353 | 37138 ft | 516 kts | 149° |
| 2026-04-29 20:01 | 35.75764 | -101.32034 | 37135 ft | 523 kts | 145° |
| 2026-04-29 20:02 | 35.70701 | -101.25674 | 37137 ft | 523 kts | 145° |
| 2026-04-29 20:02 | 35.66461 | -101.20378 | 37133 ft | 522 kts | 145° |
| 2026-04-29 20:03 | 35.60500 | -101.12957 | 37138 ft | 522 kts | 145° |
| 2026-04-29 20:03 | 35.55397 | -101.06618 | 37145 ft | 521 kts | 145° |
| 2026-04-29 20:04 | 35.50334 | -101.00330 | 37133 ft | 521 kts | 145° |
| 2026-04-29 20:04 | 35.46058 | -100.95036 | 37139 ft | 521 kts | 145° |